Barhom II — 5IM534 — position and weather

sailwx.info

Track history (hours):
 
Tides and Currents Weather Stations Pressure Air Temp Water Temp Dewpoint Dewpoint Depression Visibility Wind Speed Wind Dir Waves Ship Positions

Barhom II

Last reported at 2017-Jan-22 15:32 UTC. Time now 2017-Jan-22 16:21 UTC.
Position N 39°32' E 002°39'.

Length 83 m.

Type: Cargo ship. MMSI: 677043400.

Date/timePositionNaut miles runAvg speedWind from/ knotsBaromVisibWave heightAir tempDewpointWater temp
2017-Jan-22 15:32N 39°32' E 002°39'0 0.0
2017-Jan-22 14:26N 39°32' E 002°39'0 0.0
2017-Jan-22 13:32N 39°32' E 002°39'0 0.0
2017-Jan-22 12:32N 39°32' E 002°39'0 0.0
2017-Jan-22 11:32N 39°32' E 002°39'0 0.0
2017-Jan-22 10:32N 39°32' E 002°39'0 0.1
2017-Jan-22 09:32N 39°32' E 002°39'0 0.0
2017-Jan-22 08:32N 39°32' E 002°39'0 0.0
2017-Jan-22 07:32N 39°32' E 002°39'0 0.1
2017-Jan-22 06:32N 39°32' E 002°39'0 0.0
2017-Jan-22 05:32N 39°32' E 002°39'0 0.0
2017-Jan-22 04:32N 39°32' E 002°39'0 0.0
2017-Jan-22 03:32N 39°32' E 002°39'0 0.1
2017-Jan-22 02:32N 39°32' E 002°39'0 0.0
2017-Jan-22 01:32N 39°32' E 002°39'0 0.0
2017-Jan-22 00:32N 39°32' E 002°39'0 0.0
2017-Jan-21 23:32N 39°32' E 002°39'0 0.0
2017-Jan-21 22:32N 39°32' E 002°39'0 0.1
2017-Jan-21 21:32N 39°32' E 002°39'0 0.0
2017-Jan-21 20:31N 39°32' E 002°39'0 0.1
2017-Jan-21 19:31N 39°32' E 002°39'0 0.0
2017-Jan-21 18:31N 39°32' E 002°39'0 0.0
2017-Jan-21 17:31N 39°32' E 002°39'0 0.0
2017-Jan-21 16:31N 39°32' E 002°39'0 0.0
2017-Jan-21 15:31N 39°32' E 002°39'0 0.0
2017-Jan-21 14:31N 39°32' E 002°39'0 0.0
2017-Jan-21 13:31N 39°32' E 002°39'0 0.0
2017-Jan-21 12:31N 39°32' E 002°39'0 0.0
2017-Jan-21 11:31N 39°32' E 002°39'0 0.0
2017-Jan-21 10:31N 39°32' E 002°39'0 0.1
2017-Jan-21 09:31N 39°32' E 002°39'0 0.0
2017-Jan-21 08:31N 39°32' E 002°39'0 0.0
2017-Jan-21 07:31N 39°32' E 002°39'0 0.0
2017-Jan-21 06:31N 39°32' E 002°39'0 0.1
2017-Jan-21 05:31N 39°32' E 002°39'0 0.0
2017-Jan-21 04:31N 39°32' E 002°39'0 0.0
2017-Jan-21 03:31N 39°32' E 002°39'0 0.0
2017-Jan-21 02:31N 39°32' E 002°39'0 0.0
2017-Jan-21 01:31N 39°32' E 002°39'0 0.0
2017-Jan-21 00:31N 39°32' E 002°39'0 0.0
2017-Jan-20 23:31N 39°32' E 002°39'0 0.0
2017-Jan-20 22:31N 39°32' E 002°39'0 0.0
2017-Jan-20 21:32N 39°32' E 002°39'0 0.0
2017-Jan-20 20:32N 39°32' E 002°39'0 0.0
2017-Jan-20 19:32N 39°32' E 002°39'0 0.1
2017-Jan-20 18:32N 39°32' E 002°39'0 0.0
2017-Jan-20 17:32N 39°32' E 002°39'0 0.0
2017-Jan-20 16:32N 39°32' E 002°39'0 0.0
2017-Jan-20 15:32N 39°32' E 002°40'0 0.1
2017-Jan-20 14:32N 39°32' E 002°40'0 0.0
2017-Jan-20 13:32N 39°32' E 002°40'0 0.1
2017-Jan-20 12:32N 39°32' E 002°40'0 0.1
2017-Jan-20 11:32N 39°32' E 002°40'0 0.3
2017-Jan-20 10:33N 39°32' E 002°39'8 8.1
2017-Jan-20 09:33N 39°24' E 002°41'10 9.8
2017-Jan-20 08:33N 39°14' E 002°44'1010.1
2017-Jan-20 07:33N 39°06' E 002°52'8 8.5
2017-Jan-20 06:33N 39°08' E 003°02'9 8.9
2017-Jan-20 05:33N 39°15' E 003°10'1010.1
2017-Jan-20 04:33N 39°19' E 003°22'1210.4
2017-Jan-20 03:27N 39°23' E 003°35'910.4
2017-Jan-20 02:33N 39°27' E 003°46'  
Track history (hours):
 
Tides and Currents Weather Stations Pressure Air Temp Water Temp Dewpoint Dewpoint Depression Visibility Wind Speed Wind Dir Waves Ship Positions

Barhom II

Last reported at 2017-Jan-22 15:32 UTC. Time now 2017-Jan-22 16:21 UTC.
Position N 39°32' E 002°39'.

Length 83 m.

Type: Cargo ship. MMSI: 677043400.

Date/timePositionNaut miles runAvg speedWind from/ knotsBaromVisibWave heightAir tempDewpointWater temp
2017-Jan-22 15:32N 39°32' E 002°39'0 0.0
2017-Jan-22 14:26N 39°32' E 002°39'0 0.0
2017-Jan-22 13:32N 39°32' E 002°39'0 0.0
2017-Jan-22 12:32N 39°32' E 002°39'0 0.0
2017-Jan-22 11:32N 39°32' E 002°39'0 0.0
2017-Jan-22 10:32N 39°32' E 002°39'0 0.1
2017-Jan-22 09:32N 39°32' E 002°39'0 0.0
2017-Jan-22 08:32N 39°32' E 002°39'0 0.0
2017-Jan-22 07:32N 39°32' E 002°39'0 0.1
2017-Jan-22 06:32N 39°32' E 002°39'0 0.0
2017-Jan-22 05:32N 39°32' E 002°39'0 0.0
2017-Jan-22 04:32N 39°32' E 002°39'0 0.0
2017-Jan-22 03:32N 39°32' E 002°39'0 0.1
2017-Jan-22 02:32N 39°32' E 002°39'0 0.0
2017-Jan-22 01:32N 39°32' E 002°39'0 0.0
2017-Jan-22 00:32N 39°32' E 002°39'0 0.0
2017-Jan-21 23:32N 39°32' E 002°39'0 0.0
2017-Jan-21 22:32N 39°32' E 002°39'0 0.1
2017-Jan-21 21:32N 39°32' E 002°39'0 0.0
2017-Jan-21 20:31N 39°32' E 002°39'0 0.1
2017-Jan-21 19:31N 39°32' E 002°39'0 0.0
2017-Jan-21 18:31N 39°32' E 002°39'0 0.0
2017-Jan-21 17:31N 39°32' E 002°39'0 0.0
2017-Jan-21 16:31N 39°32' E 002°39'0 0.0
2017-Jan-21 15:31N 39°32' E 002°39'0 0.0
2017-Jan-21 14:31N 39°32' E 002°39'0 0.0
2017-Jan-21 13:31N 39°32' E 002°39'0 0.0
2017-Jan-21 12:31N 39°32' E 002°39'0 0.0
2017-Jan-21 11:31N 39°32' E 002°39'0 0.0
2017-Jan-21 10:31N 39°32' E 002°39'0 0.1
2017-Jan-21 09:31N 39°32' E 002°39'0 0.0
2017-Jan-21 08:31N 39°32' E 002°39'0 0.0
2017-Jan-21 07:31N 39°32' E 002°39'0 0.0
2017-Jan-21 06:31N 39°32' E 002°39'0 0.1
2017-Jan-21 05:31N 39°32' E 002°39'0 0.0
2017-Jan-21 04:31N 39°32' E 002°39'0 0.0
2017-Jan-21 03:31N 39°32' E 002°39'0 0.0
2017-Jan-21 02:31N 39°32' E 002°39'0 0.0
2017-Jan-21 01:31N 39°32' E 002°39'0 0.0
2017-Jan-21 00:31N 39°32' E 002°39'0 0.0
2017-Jan-20 23:31N 39°32' E 002°39'0 0.0
2017-Jan-20 22:31N 39°32' E 002°39'0 0.0
2017-Jan-20 21:32N 39°32' E 002°39'0 0.0
2017-Jan-20 20:32N 39°32' E 002°39'0 0.0
2017-Jan-20 19:32N 39°32' E 002°39'0 0.1
2017-Jan-20 18:32N 39°32' E 002°39'0 0.0
2017-Jan-20 17:32N 39°32' E 002°39'0 0.0
2017-Jan-20 16:32N 39°32' E 002°39'0 0.0
2017-Jan-20 15:32N 39°32' E 002°40'0 0.1
2017-Jan-20 14:32N 39°32' E 002°40'0 0.0
2017-Jan-20 13:32N 39°32' E 002°40'0 0.1
2017-Jan-20 12:32N 39°32' E 002°40'0 0.1
2017-Jan-20 11:32N 39°32' E 002°40'0 0.3
2017-Jan-20 10:33N 39°32' E 002°39'8 8.1
2017-Jan-20 09:33N 39°24' E 002°41'10 9.8
2017-Jan-20 08:33N 39°14' E 002°44'1010.1
2017-Jan-20 07:33N 39°06' E 002°52'8 8.5
2017-Jan-20 06:33N 39°08' E 003°02'9 8.9
2017-Jan-20 05:33N 39°15' E 003°10'1010.1
2017-Jan-20 04:33N 39°19' E 003°22'1210.4
2017-Jan-20 03:27N 39°23' E 003°35'910.4
2017-Jan-20 02:33N 39°27' E 003°46'  

Dump ship's entire track history